createdAt,value
2024-05-09T00:00:45.797Z,62.41
2024-05-09T00:03:33.988Z,62.27
2024-05-09T00:06:02.150Z,62.35
2024-05-09T00:08:30.232Z,62.21
2024-05-09T00:10:58.336Z,62.48
2024-05-09T00:13:26.476Z,62.67
2024-05-09T00:15:54.250Z,63.09
2024-05-09T00:18:22.277Z,62.80
2024-05-09T00:20:50.228Z,63.11
2024-05-09T00:23:18.214Z,63.23
2024-05-09T00:25:46.167Z,63.27
2024-05-09T00:28:14.200Z,63.24
2024-05-09T00:30:42.041Z,63.03
2024-05-09T00:33:10.986Z,63.19
2024-05-09T00:35:41.340Z,62.95
2024-05-09T00:38:09.653Z,63.14
2024-05-09T00:40:41.636Z,62.60
2024-05-09T00:43:12.389Z,62.99
2024-05-09T00:45:41.446Z,63.24
2024-05-09T00:48:10.499Z,63.52
2024-05-09T00:50:40.663Z,62.75
2024-05-09T00:53:13.174Z,62.67
2024-05-09T00:55:41.550Z,63.05
2024-05-09T00:58:10.522Z,63.20
2024-05-09T01:00:40.491Z,63.94
2024-05-09T01:03:11.985Z,63.42
2024-05-09T01:05:42.850Z,63.29
2024-05-09T01:08:11.201Z,63.28
2024-05-09T01:10:40.786Z,63.05
2024-05-09T01:13:10.731Z,62.70
2024-05-09T01:15:38.584Z,62.78
2024-05-09T01:18:07.778Z,62.58
2024-05-09T01:20:41.547Z,62.81
2024-05-09T01:23:13.984Z,62.31
2024-05-09T01:25:44.438Z,62.03
2024-05-09T01:28:12.499Z,62.73
2024-05-09T01:30:40.366Z,63.08
2024-05-09T01:33:10.191Z,63.07
2024-05-09T01:35:41.299Z,63.58
2024-05-09T01:38:13.081Z,63.34
2024-05-09T01:40:41.316Z,63.22
2024-05-09T01:43:10.463Z,63.59
2024-05-09T01:45:40.241Z,63.58
2024-05-09T01:48:09.113Z,63.68
2024-05-09T01:50:40.837Z,63.46
2024-05-09T01:53:11.698Z,63.50
2024-05-09T01:55:39.781Z,63.96
2024-05-09T01:58:08.596Z,64.11
2024-05-09T02:00:41.171Z,63.88
2024-05-09T02:03:14.730Z,64.22
2024-05-09T02:05:46.568Z,64.08
2024-05-09T02:08:22.147Z,64.59
2024-05-09T02:10:50.846Z,65.36
2024-05-09T02:13:19.194Z,64.64
2024-05-09T02:15:47.120Z,64.51
2024-05-09T02:18:15.360Z,64.91
2024-05-09T02:20:44.036Z,65.59
2024-05-09T02:23:12.534Z,65.27
2024-05-09T02:25:43.764Z,65.64
2024-05-09T02:28:11.630Z,65.51
2024-05-09T02:30:41.616Z,65.86
2024-05-09T02:33:12.531Z,66.13
2024-05-09T02:35:43.441Z,65.15
2024-05-09T02:38:12.535Z,65.11
2024-05-09T02:40:41.082Z,64.90
2024-05-09T02:43:11.039Z,64.93
2024-05-09T02:45:40.273Z,64.90
2024-05-09T02:48:10.883Z,65.56
2024-05-09T02:50:40.741Z,65.59
2024-05-09T02:53:09.715Z,65.59
2024-05-09T02:55:38.632Z,65.68
2024-05-09T02:58:07.027Z,65.51
2024-05-09T03:00:39.374Z,65.22
2024-05-09T03:03:12.851Z,65.24
2024-05-09T03:05:44.062Z,65.06
2024-05-09T03:08:12.410Z,65.04
2024-05-09T03:10:40.560Z,65.35
2024-05-09T03:13:14.722Z,65.40
2024-05-09T03:15:44.517Z,65.54
2024-05-09T03:18:12.946Z,66.39
2024-05-09T03:20:43.728Z,66.22
2024-05-09T03:23:12.025Z,65.73
2024-05-09T03:25:40.226Z,65.69
2024-05-09T03:28:08.468Z,65.09
2024-05-09T03:30:41.315Z,65.05
2024-05-09T03:33:13.512Z,65.25
2024-05-09T03:35:43.654Z,65.16
2024-05-09T03:38:12.340Z,65.40
2024-05-09T03:40:47.351Z,64.79
2024-05-09T03:43:15.657Z,64.57
2024-05-09T03:45:43.758Z,64.27
2024-05-09T03:48:11.978Z,63.87
2024-05-09T03:50:40.513Z,63.68
2024-05-09T03:53:12.402Z,63.58
2024-05-09T03:55:40.481Z,63.71
2024-05-09T03:58:08.539Z,63.48
2024-05-09T04:00:39.258Z,63.11
2024-05-09T04:03:10.781Z,62.85
2024-05-09T04:05:42.400Z,62.77
2024-05-09T04:08:14.891Z,62.83
2024-05-09T04:10:43.278Z,62.91
2024-05-09T04:13:11.324Z,63.56
2024-05-09T04:15:39.437Z,63.27
2024-05-09T04:18:07.487Z,63.18
2024-05-09T04:20:39.209Z,62.88
2024-05-09T04:23:13.848Z,62.75
2024-05-09T04:25:44.572Z,62.15
2024-05-09T04:28:13.703Z,62.13
2024-05-09T04:30:42.493Z,62.63
2024-05-09T04:33:13.147Z,62.47
2024-05-09T04:35:43.052Z,61.99
2024-05-09T04:38:13.770Z,61.46
2024-05-09T04:40:42.546Z,61.20
2024-05-09T04:43:15.015Z,60.87
2024-05-09T04:45:43.565Z,60.56
2024-05-09T04:48:11.778Z,60.24
2024-05-09T04:50:40.153Z,60.29
2024-05-09T04:53:10.585Z,60.48
2024-05-09T04:55:40.478Z,60.66
2024-05-09T04:58:09.363Z,60.81
2024-05-09T05:00:39.739Z,60.63
2024-05-09T05:03:12.699Z,60.06
2024-05-09T05:05:44.491Z,59.14
2024-05-09T05:08:17.701Z,58.78
2024-05-09T05:10:47.477Z,58.43
2024-05-09T05:13:20.931Z,58.15
2024-05-09T05:15:52.039Z,58.22
2024-05-09T05:18:20.271Z,58.43
2024-05-09T05:20:48.263Z,58.27
2024-05-09T05:23:21.389Z,58.04
2024-05-09T05:25:55.397Z,58.11
2024-05-09T05:28:23.964Z,58.12
2024-05-09T05:30:51.945Z,57.99
2024-05-09T05:33:22.296Z,57.83
2024-05-09T05:35:50.811Z,57.88
2024-05-09T05:38:20.035Z,57.61
2024-05-09T05:40:49.886Z,57.18
2024-05-09T05:43:18.152Z,56.48
2024-05-09T05:45:46.683Z,55.75
2024-05-09T05:48:18.386Z,55.76
2024-05-09T05:50:46.839Z,55.33
2024-05-09T05:53:15.157Z,54.65
2024-05-09T05:55:43.077Z,55.02
2024-05-09T05:58:11.500Z,54.80
2024-05-09T06:00:41.100Z,54.36
2024-05-09T06:03:11.451Z,54.30
2024-05-09T06:05:40.711Z,53.61
2024-05-09T06:08:09.312Z,52.56
2024-05-09T06:10:39.981Z,51.97
2024-05-09T06:13:12.371Z,52.21
2024-05-09T06:15:41.092Z,51.92
2024-05-09T06:18:10.423Z,51.24
2024-05-09T06:20:41.533Z,50.10
2024-05-09T06:23:10.496Z,50.53
2024-05-09T06:25:39.301Z,50.41
2024-05-09T06:28:07.208Z,50.33
2024-05-09T06:30:40.222Z,49.86
2024-05-09T06:33:11.927Z,48.61
2024-05-09T06:35:42.302Z,47.88
2024-05-09T06:38:10.619Z,46.92
2024-05-09T06:40:41.477Z,46.81
2024-05-09T06:43:14.499Z,44.28
2024-05-09T06:45:42.998Z,44.37
2024-05-09T06:48:11.243Z,43.63
2024-05-09T06:50:40.281Z,42.25
2024-05-09T06:53:09.197Z,41.80
2024-05-09T06:55:37.994Z,40.67
2024-05-09T06:58:07.046Z,40.91
2024-05-09T07:00:39.585Z,39.90
2024-05-09T07:03:10.827Z,38.71
2024-05-09T07:05:39.904Z,39.88
2024-05-09T07:08:08.550Z,38.93
2024-05-09T07:10:37.131Z,38.48
2024-05-09T07:13:12.200Z,38.45
2024-05-09T07:15:40.920Z,36.93
2024-05-09T07:18:17.719Z,37.78
2024-05-09T07:20:47.854Z,37.39
2024-05-09T07:23:16.488Z,37.67
2024-05-09T07:25:44.767Z,36.19
2024-05-09T07:28:16.784Z,36.74
2024-05-09T07:30:45.002Z,35.84
2024-05-09T07:33:20.857Z,35.64
2024-05-09T07:35:50.299Z,35.68
2024-05-09T07:38:18.488Z,35.84
2024-05-09T07:40:46.782Z,36.92
2024-05-09T07:43:15.707Z,36.36
2024-05-09T07:45:51.755Z,36.22
2024-05-09T07:52:38.291Z,35.27
2024-05-09T07:53:46.949Z,33.25
2024-05-09T07:56:19.161Z,32.15
2024-05-09T07:58:50.159Z,32.04
2024-05-09T08:01:18.219Z,32.22
2024-05-09T08:03:46.720Z,33.22
2024-05-09T08:06:15.110Z,33.13
2024-05-09T08:08:43.304Z,32.87
2024-05-09T08:11:11.261Z,32.81
2024-05-09T08:13:39.294Z,32.59
2024-05-09T08:16:07.406Z,33.32
2024-05-09T08:18:35.735Z,33.47
2024-05-09T08:21:03.922Z,32.80
2024-05-09T08:23:32.053Z,32.53
2024-05-09T08:26:00.625Z,32.35
2024-05-09T08:28:28.651Z,32.76
2024-05-09T08:30:57.077Z,32.47
2024-05-09T08:33:25.274Z,32.30
2024-05-09T08:35:54.796Z,32.00
2024-05-09T08:38:22.655Z,32.09
2024-05-09T08:40:53.472Z,32.03
2024-05-09T08:43:21.517Z,31.35
2024-05-09T08:45:49.957Z,31.76
2024-05-09T08:48:18.300Z,31.69
2024-05-09T08:50:46.417Z,32.07
2024-05-09T08:53:15.214Z,31.52
2024-05-09T08:55:44.616Z,32.20
2024-05-09T08:58:15.440Z,32.45
2024-05-09T09:00:44.206Z,31.25
2024-05-09T09:03:18.433Z,30.73
2024-05-09T09:05:53.070Z,29.83
2024-05-09T09:08:21.126Z,30.91
2024-05-09T09:10:49.171Z,30.70
2024-05-09T09:13:17.076Z,30.44
2024-05-09T09:15:49.681Z,30.04
2024-05-09T09:18:18.042Z,30.04
2024-05-09T09:20:46.388Z,30.41
2024-05-09T09:23:15.081Z,30.12
2024-05-09T09:25:42.968Z,30.13
2024-05-09T09:28:11.121Z,30.63
2024-05-09T09:30:42.752Z,30.63
2024-05-09T09:33:11.408Z,30.83
2024-05-09T09:35:40.135Z,30.82
2024-05-09T09:38:08.284Z,30.56
2024-05-09T09:40:41.012Z,30.40
2024-05-09T09:43:19.182Z,29.81
2024-05-09T09:45:51.661Z,29.97
2024-05-09T09:48:20.517Z,30.33
2024-05-09T09:50:48.699Z,30.24
2024-05-09T09:53:16.731Z,30.22
2024-05-09T09:55:45.827Z,30.13
2024-05-09T09:58:14.869Z,30.40
2024-05-09T10:00:43.074Z,30.52
2024-05-09T10:03:11.342Z,30.02
2024-05-09T10:05:41.314Z,29.77
2024-05-09T10:08:11.260Z,29.20
2024-05-09T10:10:39.432Z,29.20
2024-05-09T10:13:08.795Z,28.94
2024-05-09T10:15:53.489Z,29.09
2024-05-09T10:18:28.163Z,28.91
2024-05-09T10:20:59.467Z,28.82
2024-05-09T10:23:28.665Z,28.56
2024-05-09T10:26:04.607Z,28.75
2024-05-09T10:28:38.857Z,28.48
2024-05-09T10:31:07.866Z,27.51
2024-05-09T10:33:37.462Z,27.96
2024-05-09T10:36:13.208Z,26.57
2024-05-09T10:38:42.763Z,26.99
2024-05-09T10:41:11.022Z,27.15
2024-05-09T10:43:40.849Z,27.06
2024-05-09T10:46:09.496Z,26.34
2024-05-09T10:48:38.292Z,26.61
2024-05-09T10:51:06.454Z,26.20
2024-05-09T10:53:44.254Z,25.34
2024-05-09T10:56:15.679Z,26.40
2024-05-09T10:58:43.584Z,26.27
2024-05-09T11:01:11.678Z,26.64
2024-05-09T11:03:40.342Z,26.90
2024-05-09T11:06:09.581Z,26.37
2024-05-09T11:08:37.723Z,25.85
2024-05-09T11:11:07.671Z,26.25
2024-05-09T11:13:38.365Z,26.02
2024-05-09T11:16:15.628Z,26.14
2024-05-09T11:18:44.104Z,25.89
2024-05-09T11:21:12.983Z,26.41
2024-05-09T11:23:42.044Z,26.30
2024-05-09T11:26:10.722Z,25.97
2024-05-09T11:28:38.992Z,25.37
2024-05-09T11:31:08.721Z,25.74
2024-05-09T11:33:41.787Z,25.39
2024-05-09T11:36:09.881Z,25.41
2024-05-09T11:38:37.727Z,25.16
2024-05-09T11:41:05.706Z,24.65
2024-05-09T11:43:33.775Z,25.14
2024-05-09T11:46:03.662Z,24.94
2024-05-09T11:48:32.481Z,24.00
2024-05-09T11:51:00.709Z,23.90
2024-05-09T11:53:28.611Z,23.82
2024-05-09T11:55:56.466Z,23.79
2024-05-09T11:58:24.415Z,23.48
2024-05-09T12:00:52.515Z,23.50
2024-05-09T12:03:20.720Z,23.46
2024-05-09T12:05:49.015Z,22.87
2024-05-09T12:08:16.992Z,22.16
2024-05-09T12:10:45.042Z,22.85
2024-05-09T12:13:13.031Z,22.33
2024-05-09T12:15:40.946Z,21.59
2024-05-09T12:18:09.072Z,21.52
2024-05-09T12:20:39.444Z,21.64
2024-05-09T12:23:09.891Z,21.52
2024-05-09T12:25:39.040Z,21.37
2024-05-09T12:28:08.090Z,21.33
2024-05-09T12:30:40.689Z,21.46
2024-05-09T12:33:11.098Z,21.68
2024-05-09T12:35:41.076Z,22.39
2024-05-09T12:38:10.154Z,21.58
2024-05-09T12:40:39.224Z,21.68
2024-05-09T12:43:08.333Z,22.05
2024-05-09T12:45:37.615Z,22.06
2024-05-09T12:48:11.327Z,21.86
2024-05-09T12:50:40.348Z,22.31
2024-05-09T12:53:08.676Z,21.97
2024-05-09T12:55:44.139Z,22.05
2024-05-09T12:58:21.736Z,22.04
2024-05-09T13:00:50.897Z,21.99
2024-05-09T13:03:19.052Z,22.23
2024-05-09T13:05:47.377Z,21.56
2024-05-09T13:08:15.854Z,21.21
2024-05-09T13:10:43.887Z,21.86
2024-05-09T13:13:12.166Z,21.98
2024-05-09T13:15:40.473Z,21.78
2024-05-09T13:18:08.690Z,21.71
2024-05-09T13:20:37.091Z,21.46
2024-05-09T13:23:06.659Z,21.93
2024-05-09T13:25:37.751Z,21.50
2024-05-09T13:28:07.348Z,21.50
2024-05-09T13:30:40.296Z,21.35
2024-05-09T13:33:11.770Z,22.20
2024-05-09T13:35:45.560Z,22.42
2024-05-09T13:38:18.158Z,22.70
2024-05-09T13:40:46.371Z,22.47
2024-05-09T13:43:14.431Z,21.91
2024-05-09T13:45:42.751Z,21.62
2024-05-09T13:48:11.578Z,22.03
2024-05-09T13:50:39.592Z,22.06
2024-05-09T13:53:08.564Z,22.12
2024-05-09T13:55:38.018Z,22.34
2024-05-09T13:58:06.426Z,21.74
2024-05-09T14:00:44.264Z,21.76
2024-05-09T14:03:18.107Z,21.77
2024-05-09T14:05:49.936Z,20.88
2024-05-09T14:08:19.689Z,21.17
2024-05-09T14:10:48.691Z,20.80
2024-05-09T14:13:16.991Z,20.49
2024-05-09T14:15:46.028Z,20.99
2024-05-09T14:18:14.624Z,20.96
2024-05-09T14:20:43.346Z,20.85
2024-05-09T14:23:11.430Z,20.97
2024-05-09T14:25:42.575Z,21.56
2024-05-09T14:28:13.054Z,20.75
2024-05-09T14:30:42.216Z,20.76
2024-05-09T14:33:11.232Z,21.22
2024-05-09T14:35:39.516Z,21.19
2024-05-09T14:38:11.026Z,20.84
2024-05-09T14:40:42.886Z,20.48
2024-05-09T14:43:13.848Z,20.29
2024-05-09T14:45:43.468Z,20.70
2024-05-09T14:48:14.582Z,20.91
2024-05-09T14:50:42.783Z,20.70
2024-05-09T14:53:11.772Z,20.24
2024-05-09T14:55:41.733Z,20.80
2024-05-09T14:58:11.395Z,21.12
2024-05-09T15:00:45.674Z,19.82
2024-05-09T15:03:18.908Z,19.74
2024-05-09T15:05:47.590Z,20.20
2024-05-09T15:08:16.589Z,20.81
2024-05-09T15:10:44.703Z,21.30
2024-05-09T15:13:15.479Z,21.01
2024-05-09T15:15:44.977Z,21.15
2024-05-09T15:18:14.123Z,20.57
2024-05-09T15:20:43.469Z,21.16
2024-05-09T15:23:11.545Z,21.67
2024-05-09T15:25:40.270Z,21.83
2024-05-09T15:28:08.709Z,21.87
2024-05-09T15:30:37.354Z,21.30
2024-05-09T15:33:07.076Z,20.90
2024-05-09T15:35:36.290Z,20.93
2024-05-09T15:38:04.825Z,20.96
2024-05-09T15:40:39.423Z,21.30
2024-05-09T15:43:10.474Z,21.38
2024-05-09T15:45:40.998Z,21.85
2024-05-09T15:48:10.418Z,21.90
2024-05-09T15:50:41.738Z,22.13
2024-05-09T15:53:12.533Z,22.05
2024-05-09T15:55:42.180Z,21.71
2024-05-09T15:58:10.577Z,22.09
2024-05-09T16:00:41.985Z,21.75
2024-05-09T16:03:13.131Z,21.43
2024-05-09T16:05:43.744Z,20.62
2024-05-09T16:08:12.626Z,20.38
2024-05-09T16:10:44.359Z,20.00
2024-05-09T16:13:13.561Z,19.80
2024-05-09T16:15:43.322Z,19.62
2024-05-09T16:18:11.361Z,19.09
2024-05-09T16:20:41.715Z,18.90
2024-05-09T16:23:11.319Z,19.48
2024-05-09T16:25:39.824Z,19.75
2024-05-09T16:28:10.449Z,20.50
2024-05-09T16:30:39.914Z,21.06
2024-05-09T16:33:08.898Z,21.65
2024-05-09T16:35:39.201Z,21.93
2024-05-09T16:38:07.291Z,22.46
2024-05-09T16:40:39.718Z,22.80
2024-05-09T16:43:10.591Z,23.36
2024-05-09T16:45:40.054Z,23.40
2024-05-09T16:48:08.408Z,23.86
2024-05-09T16:50:36.918Z,24.48
2024-05-09T16:53:05.998Z,25.21
2024-05-09T16:55:35.556Z,24.70
2024-05-09T16:58:04.302Z,24.93
2024-05-09T17:00:40.224Z,25.22
2024-05-09T17:03:14.260Z,25.54
2024-05-09T17:05:46.759Z,26.72
2024-05-09T17:08:16.868Z,27.20
2024-05-09T17:10:45.601Z,28.06
2024-05-09T17:13:13.689Z,28.72
2024-05-09T17:15:41.658Z,29.15
2024-05-09T17:18:09.758Z,29.56
2024-05-09T17:20:38.070Z,30.12
2024-05-09T17:23:13.306Z,30.45
2024-05-09T17:25:42.121Z,30.36
2024-05-09T17:28:10.588Z,30.45
2024-05-09T17:30:40.716Z,30.26
2024-05-09T17:33:11.220Z,30.30
2024-05-09T17:35:40.393Z,30.71
2024-05-09T17:38:08.466Z,31.16
2024-05-09T17:40:38.265Z,31.91
2024-05-09T17:43:08.976Z,32.10
2024-05-09T17:45:40.643Z,33.01
2024-05-09T17:48:11.042Z,33.89
2024-05-09T17:50:40.744Z,34.65
2024-05-09T17:53:10.235Z,34.86
2024-05-09T17:55:39.382Z,35.33
2024-05-09T17:58:07.827Z,34.70
2024-05-09T18:00:39.721Z,34.74
2024-05-09T18:03:11.856Z,34.59
2024-05-09T18:05:42.907Z,34.76
2024-05-09T18:08:11.997Z,34.81
2024-05-09T18:10:41.190Z,34.89
2024-05-09T18:13:10.205Z,35.21
2024-05-09T18:15:38.943Z,36.14
2024-05-09T18:18:07.967Z,35.97
2024-05-09T18:20:42.281Z,36.11
2024-05-09T18:23:15.766Z,36.49
2024-05-09T18:25:45.354Z,36.43
2024-05-09T18:28:13.809Z,36.37
2024-05-09T18:30:41.950Z,36.64
2024-05-09T18:33:10.599Z,36.80
2024-05-09T18:35:41.055Z,36.87
2024-05-09T18:38:09.047Z,36.99
2024-05-09T18:40:38.330Z,37.32
2024-05-09T18:43:08.953Z,37.85
2024-05-09T18:45:38.192Z,38.34
2024-05-09T18:48:08.041Z,38.52
2024-05-09T18:50:39.517Z,38.65
2024-05-09T18:53:10.684Z,39.17
2024-05-09T18:55:40.776Z,40.06
2024-05-09T18:58:08.669Z,40.03
2024-05-09T19:00:39.906Z,39.70
2024-05-09T19:03:12.894Z,40.04
2024-05-09T19:05:44.387Z,40.13
2024-05-09T19:08:14.920Z,40.99
2024-05-09T19:10:45.320Z,41.21
2024-05-09T19:13:14.452Z,41.69
2024-05-09T19:15:43.656Z,41.58
2024-05-09T19:18:13.389Z,41.65
2024-05-09T19:20:42.489Z,41.71
2024-05-09T19:23:11.814Z,41.93
2024-05-09T19:25:40.151Z,42.04
2024-05-09T19:28:08.170Z,42.22
2024-05-09T19:30:40.522Z,42.66
2024-05-09T19:33:12.701Z,43.06
2024-05-09T19:35:42.970Z,42.80
2024-05-09T19:38:12.271Z,43.14
2024-05-09T19:40:40.591Z,44.03
2024-05-09T19:43:09.334Z,44.76
2024-05-09T19:45:37.642Z,44.79
2024-05-09T19:48:06.704Z,44.34
2024-05-09T19:50:41.656Z,45.07
2024-05-09T19:53:13.962Z,45.03
2024-05-09T19:55:42.915Z,44.77
2024-05-09T19:58:11.879Z,45.60
2024-05-09T20:00:43.272Z,45.95
2024-05-09T20:03:14.095Z,46.66
2024-05-09T20:05:44.712Z,47.37
2024-05-09T20:08:12.811Z,47.35
2024-05-09T20:10:40.830Z,48.38
2024-05-09T20:13:09.105Z,48.05
2024-05-09T20:15:37.923Z,48.26
2024-05-09T20:18:06.951Z,48.85
2024-05-09T20:20:39.668Z,49.18
2024-05-09T20:23:11.455Z,49.50
2024-05-09T20:25:40.201Z,49.90
2024-05-09T20:28:08.231Z,49.70
2024-05-09T20:30:36.661Z,50.25
2024-05-09T20:33:07.340Z,50.82
2024-05-09T20:35:36.787Z,49.87
2024-05-09T20:38:05.226Z,50.45
2024-05-09T20:40:36.990Z,50.53
2024-05-09T20:43:10.721Z,50.39
2024-05-09T20:45:41.402Z,50.24
2024-05-09T20:48:09.702Z,51.02
2024-05-09T20:50:41.085Z,50.81
2024-05-09T20:53:15.301Z,51.09
2024-05-09T20:55:44.447Z,51.38
2024-05-09T20:58:13.629Z,51.23
2024-05-09T21:00:44.670Z,51.63
2024-05-09T21:03:16.394Z,52.33
2024-05-09T21:05:47.265Z,52.21
2024-05-09T21:08:15.925Z,51.08
2024-05-09T21:10:44.034Z,50.27
2024-05-09T21:13:12.290Z,49.74
2024-05-09T21:15:40.430Z,49.76
2024-05-09T21:18:08.479Z,51.36
2024-05-09T21:20:37.460Z,50.96
2024-05-09T21:23:05.700Z,50.58
2024-05-09T21:25:33.717Z,51.63
2024-05-09T21:28:01.662Z,53.12
2024-05-09T21:30:38.580Z,53.97
2024-05-09T21:33:12.761Z,53.34
2024-05-09T21:35:45.311Z,52.63
2024-05-09T21:38:14.480Z,52.08
2024-05-09T21:40:43.081Z,52.87
2024-05-09T21:43:11.059Z,53.44
2024-05-09T21:45:38.968Z,52.92
2024-05-09T21:48:07.656Z,54.12
2024-05-09T21:50:40.086Z,54.54
2024-05-09T21:53:11.220Z,54.27
2024-05-09T21:55:39.294Z,54.78
2024-05-09T21:58:07.865Z,54.57
2024-05-09T22:00:39.233Z,55.04
2024-05-09T22:03:08.579Z,53.88
2024-05-09T22:05:38.853Z,53.44
2024-05-09T22:08:07.536Z,53.99
2024-05-09T22:10:36.724Z,54.10
2024-05-09T22:13:06.426Z,54.12
2024-05-09T22:15:35.674Z,54.43
2024-05-09T22:18:04.935Z,54.69
2024-05-09T22:20:37.520Z,54.84
2024-05-09T22:23:08.292Z,54.92
2024-05-09T22:25:38.273Z,54.45
2024-05-09T22:28:06.383Z,54.60
2024-05-09T22:30:38.128Z,54.45
2024-05-09T22:33:09.387Z,55.10
2024-05-09T22:35:38.786Z,54.61
2024-05-09T22:38:06.845Z,55.04
2024-05-09T22:40:45.420Z,56.14
2024-05-09T22:43:18.267Z,56.21
2024-05-09T22:45:46.813Z,56.18
2024-05-09T22:48:14.930Z,56.11
2024-05-09T22:50:43.290Z,56.02
2024-05-09T22:53:11.640Z,56.74
2024-05-09T22:55:39.510Z,57.21
2024-05-09T22:58:07.650Z,56.26
2024-05-09T23:00:35.970Z,56.29
2024-05-09T23:03:04.058Z,55.59
2024-05-09T23:05:32.721Z,55.26
2024-05-09T23:08:01.977Z,55.04
2024-05-09T23:10:35.755Z,55.36
2024-05-09T23:13:07.216Z,55.09
2024-05-09T23:15:37.732Z,55.33
2024-05-09T23:18:06.172Z,55.42
2024-05-09T23:20:38.406Z,55.75
2024-05-09T23:23:08.602Z,56.38
2024-05-09T23:25:36.756Z,56.24
2024-05-09T23:28:05.428Z,56.16
2024-05-09T23:30:38.114Z,56.26
2024-05-09T23:33:11.928Z,56.29
2024-05-09T23:35:41.254Z,56.34
2024-05-09T23:38:09.188Z,56.37
2024-05-09T23:40:40.023Z,56.56
2024-05-09T23:43:10.697Z,56.75
2024-05-09T23:45:39.263Z,57.05
2024-05-09T23:48:07.987Z,58.06
2024-05-09T23:50:38.362Z,58.34
2024-05-09T23:53:09.225Z,58.27
2024-05-09T23:55:38.361Z,58.25
2024-05-09T23:58:07.418Z,58.12
